Terminal Aerodrome Forecast
Issued by NWS

Home | Current Version | Previous Version | Text Only | Print | Product List | Glossary Off
Versions: 1 2 3 4 5 6 7 8 9 10 11 12 13 14 15 16 17 18 19 20 21 22 23 24 25

000
FTUS45 KGGW 261720
TAFOLF
TAF
KOLF 261720Z 2618/2718 15010KT P6SM FEW200
     FM270400 10009KT P6SM FEW210
     FM270500 09009KT P6SM FEW200 WS020/17035KT
     FM271000 10005KT P6SM SCT110=

USA.gov is the U.S. government's official web portal to all federal, state and local government web resources and services.